createdAt,value
2022-09-25T00:00:54.301Z,14.24
2022-09-25T00:03:22.815Z,14.25
2022-09-25T00:05:49.235Z,14.17
2022-09-25T00:08:16.911Z,14.11
2022-09-25T00:10:45.716Z,14.09
2022-09-25T00:13:12.130Z,14.06
2022-09-25T00:15:44.984Z,14.06
2022-09-25T00:18:11.435Z,14.08
2022-09-25T00:20:37.815Z,14.02
2022-09-25T00:23:04.215Z,13.99
2022-09-25T00:25:30.600Z,14.03
2022-09-25T00:27:56.993Z,14.00
2022-09-25T00:30:23.924Z,13.99
2022-09-25T00:32:50.502Z,14.01
2022-09-25T00:35:17.029Z,14.03
2022-09-25T00:37:43.415Z,14.03
2022-09-25T00:40:10.111Z,14.04
2022-09-25T00:42:36.533Z,14.00
2022-09-25T00:45:07.198Z,13.97
2022-09-25T00:47:57.644Z,13.98
2022-09-25T00:50:32.812Z,13.96
2022-09-25T00:53:05.203Z,14.01
2022-09-25T00:55:34.412Z,13.99
2022-09-25T00:58:03.442Z,13.97
2022-09-25T01:00:31.306Z,13.96
2022-09-25T01:02:58.741Z,13.99
2022-09-25T01:05:30.412Z,14.02
2022-09-25T01:07:59.647Z,14.00
2022-09-25T01:10:26.425Z,13.97
2022-09-25T01:12:54.135Z,13.97
2022-09-25T01:15:28.059Z,13.95
2022-09-25T01:18:13.471Z,14.00
2022-09-25T01:20:51.815Z,14.03
2022-09-25T01:23:37.862Z,14.00
2022-09-25T01:26:31.243Z,14.03
2022-09-25T01:29:15.875Z,14.04
2022-09-25T01:31:45.283Z,14.01
2022-09-25T01:34:20.029Z,14.08
2022-09-25T01:37:09.850Z,14.19
2022-09-25T01:39:41.443Z,14.16
2022-09-25T01:42:18.125Z,14.03
2022-09-25T01:44:52.011Z,14.00
2022-09-25T01:47:26.762Z,14.01
2022-09-25T01:49:57.867Z,13.98
2022-09-25T01:52:31.299Z,14.10
2022-09-25T01:55:05.689Z,14.01
2022-09-25T01:57:41.661Z,14.11
2022-09-25T02:00:10.324Z,14.08
2022-09-25T02:02:48.296Z,14.05
2022-09-25T02:05:21.836Z,14.07
2022-09-25T02:07:54.228Z,13.96
2022-09-25T02:10:33.325Z,13.92
2022-09-25T02:13:08.652Z,13.84
2022-09-25T02:15:40.137Z,13.83
2022-09-25T02:18:29.678Z,13.82
2022-09-25T02:21:06.788Z,13.81
2022-09-25T02:23:42.542Z,13.79
2022-09-25T02:26:16.317Z,13.83
2022-09-25T02:28:43.377Z,13.81
2022-09-25T02:31:12.864Z,13.72
2022-09-25T02:33:39.327Z,13.72
2022-09-25T02:36:06.409Z,13.77
2022-09-25T02:38:34.534Z,13.74
2022-09-25T02:41:18.950Z,13.76
2022-09-25T02:44:02.729Z,13.72
2022-09-25T02:46:48.791Z,13.75
2022-09-25T02:49:44.406Z,13.76
2022-09-25T02:52:16.368Z,13.85
2022-09-25T02:54:54.709Z,13.68
2022-09-25T02:57:38.265Z,13.70
2022-09-25T03:00:07.442Z,13.76
2022-09-25T03:02:37.206Z,13.73
2022-09-25T03:05:05.791Z,13.75
2022-09-25T03:07:53.210Z,13.84
2022-09-25T03:10:20.510Z,13.75
2022-09-25T03:12:46.913Z,13.65
2022-09-25T03:15:13.350Z,13.84
2022-09-25T03:17:39.877Z,13.76
2022-09-25T03:20:07.336Z,13.73
2022-09-25T03:22:33.751Z,13.61
2022-09-25T03:25:00.171Z,13.65
2022-09-25T03:27:28.185Z,13.59
2022-09-25T03:29:55.331Z,13.55
2022-09-25T03:32:23.620Z,13.56
2022-09-25T03:34:50.310Z,13.52
2022-09-25T03:37:16.714Z,13.52
2022-09-25T03:39:43.119Z,13.58
2022-09-25T03:42:09.548Z,13.54
2022-09-25T03:44:36.433Z,13.55
2022-09-25T03:47:02.837Z,13.50
2022-09-25T03:49:29.236Z,13.48
2022-09-25T03:51:55.635Z,13.48
2022-09-25T03:54:22.025Z,13.47
2022-09-25T03:56:48.476Z,13.41
2022-09-25T03:59:14.957Z,13.31
2022-09-25T04:01:42.502Z,13.31
2022-09-25T04:04:09.024Z,13.35
2022-09-25T04:06:36.236Z,13.31
2022-09-25T04:09:02.637Z,13.29
2022-09-25T04:11:29.052Z,13.29
2022-09-25T04:13:57.290Z,13.29
2022-09-25T04:16:23.753Z,13.29
2022-09-25T04:18:50.626Z,13.30
2022-09-25T04:21:17.102Z,13.22
2022-09-25T04:24:03.589Z,13.21
2022-09-25T04:26:30.508Z,13.16
2022-09-25T04:28:56.889Z,13.17
2022-09-25T04:31:23.318Z,13.10
2022-09-25T04:33:49.717Z,13.12
2022-09-25T04:36:16.792Z,13.10
2022-09-25T04:38:43.881Z,13.09
2022-09-25T04:41:10.458Z,13.15
2022-09-25T04:43:37.061Z,13.27
2022-09-25T04:46:05.632Z,13.13
2022-09-25T04:48:32.976Z,13.22
2022-09-25T04:50:59.696Z,13.18
2022-09-25T04:53:27.899Z,13.13
2022-09-25T04:55:55.796Z,13.02
2022-09-25T04:58:22.195Z,12.99
2022-09-25T05:00:49.176Z,12.98
2022-09-25T05:03:15.798Z,13.01
2022-09-25T05:05:42.323Z,12.98
2022-09-25T05:08:09.688Z,13.00
2022-09-25T05:10:36.211Z,13.05
2022-09-25T05:13:04.182Z,13.03
2022-09-25T05:15:33.248Z,13.14
2022-09-25T05:18:15.731Z,13.12
2022-09-25T05:20:42.175Z,13.01
2022-09-25T05:23:08.780Z,12.97
2022-09-25T05:25:35.184Z,13.02
2022-09-25T05:28:02.050Z,12.95
2022-09-25T05:30:31.601Z,12.99
2022-09-25T05:33:00.874Z,12.97
2022-09-25T05:35:30.812Z,13.00
2022-09-25T05:37:57.602Z,12.96
2022-09-25T05:40:24.375Z,13.03
2022-09-25T05:42:51.943Z,13.07
2022-09-25T05:45:20.034Z,13.13
2022-09-25T05:47:47.017Z,13.12
2022-09-25T05:50:15.421Z,13.20
2022-09-25T05:52:41.806Z,13.22
2022-09-25T05:55:09.703Z,13.27
2022-09-25T05:57:37.199Z,13.32
2022-09-25T06:00:09.375Z,13.30
2022-09-25T06:02:39.042Z,13.45
2022-09-25T06:05:05.501Z,13.48
2022-09-25T06:07:31.893Z,13.45
2022-09-25T06:09:58.315Z,13.46
2022-09-25T06:12:24.770Z,13.43
2022-09-25T06:14:52.468Z,13.42
2022-09-25T06:17:19.104Z,13.43
2022-09-25T06:19:45.507Z,13.51
2022-09-25T06:22:12.003Z,13.55
2022-09-25T06:24:38.402Z,13.56
2022-09-25T06:27:06.535Z,13.61
2022-09-25T06:29:32.945Z,13.58
2022-09-25T06:31:59.352Z,13.63
2022-09-25T06:34:28.275Z,13.69
2022-09-25T06:36:54.700Z,13.77
2022-09-25T06:39:21.231Z,13.81
2022-09-25T06:41:47.648Z,13.75
2022-09-25T06:44:21.923Z,13.89
2022-09-25T06:46:54.368Z,13.81
2022-09-25T06:49:21.853Z,13.80
2022-09-25T06:51:48.378Z,13.85
2022-09-25T06:54:14.805Z,13.90
2022-09-25T06:56:41.233Z,13.97
2022-09-25T06:59:09.132Z,13.96
2022-09-25T07:01:35.845Z,14.03
2022-09-25T07:04:04.086Z,13.99
2022-09-25T07:06:31.864Z,13.98
2022-09-25T07:08:58.373Z,13.78
2022-09-25T07:11:28.022Z,13.83
2022-09-25T07:13:55.167Z,13.84
2022-09-25T07:16:24.757Z,13.86
2022-09-25T07:18:54.666Z,13.90
2022-09-25T07:21:24.436Z,13.97
2022-09-25T07:23:52.133Z,14.10
2022-09-25T07:26:22.214Z,14.20
2022-09-25T07:28:54.976Z,14.19
2022-09-25T07:31:30.112Z,14.20
2022-09-25T07:33:57.760Z,14.25
2022-09-25T07:36:24.532Z,14.30
2022-09-25T07:38:52.282Z,14.36
2022-09-25T07:41:20.883Z,14.40
2022-09-25T07:43:47.292Z,14.38
2022-09-25T07:46:13.763Z,14.27
2022-09-25T07:48:40.419Z,14.16
2022-09-25T07:51:09.974Z,14.27
2022-09-25T07:53:36.667Z,14.38
2022-09-25T07:56:06.864Z,14.37
2022-09-25T07:58:35.291Z,14.35
2022-09-25T08:01:05.306Z,14.46
2022-09-25T08:03:32.245Z,14.57
2022-09-25T08:06:00.587Z,14.69
2022-09-25T08:08:27.809Z,14.77
2022-09-25T08:10:59.768Z,14.78
2022-09-25T08:13:26.163Z,14.89
2022-09-25T08:15:52.649Z,14.97
2022-09-25T08:18:19.123Z,15.04
2022-09-25T08:20:45.506Z,15.12
2022-09-25T08:23:11.905Z,15.16
2022-09-25T08:25:38.619Z,15.26
2022-09-25T08:28:05.024Z,15.36
2022-09-25T08:30:31.648Z,15.42
2022-09-25T08:32:58.163Z,15.47
2022-09-25T08:35:24.590Z,15.54
2022-09-25T08:37:50.971Z,15.57
2022-09-25T08:40:26.889Z,15.55
2022-09-25T08:42:55.160Z,15.59
2022-09-25T08:45:46.116Z,15.57
2022-09-25T08:49:03.581Z,15.61
2022-09-25T08:51:32.399Z,15.58
2022-09-25T08:53:59.963Z,15.60
2022-09-25T08:56:32.569Z,15.55
2022-09-25T08:59:30.724Z,15.73
2022-09-25T09:02:00.901Z,15.71
2022-09-25T09:04:35.838Z,15.84
2022-09-25T09:07:32.249Z,15.93
2022-09-25T09:10:21.319Z,16.06
2022-09-25T09:12:56.469Z,16.08
2022-09-25T09:15:30.380Z,16.21
2022-09-25T09:17:59.772Z,16.26
2022-09-25T09:20:41.438Z,16.38
2022-09-25T09:23:17.075Z,16.52
2022-09-25T09:25:58.411Z,16.46
2022-09-25T09:28:44.641Z,16.50
2022-09-25T09:31:49.974Z,16.66
2022-09-25T09:35:03.978Z,16.79
2022-09-25T09:37:52.578Z,16.85
2022-09-25T09:40:53.685Z,16.90
2022-09-25T09:43:31.565Z,17.08
2022-09-25T09:46:08.239Z,17.23
2022-09-25T09:48:48.618Z,17.19
2022-09-25T09:51:21.382Z,17.26
2022-09-25T09:53:53.055Z,17.37
2022-09-25T09:56:31.870Z,17.48
2022-09-25T09:59:05.062Z,17.54
2022-09-25T10:01:41.428Z,17.58
2022-09-25T10:04:17.130Z,17.55
2022-09-25T10:06:59.246Z,17.69
2022-09-25T10:09:28.112Z,17.70
2022-09-25T10:12:05.323Z,17.71
2022-09-25T10:14:40.905Z,17.98
2022-09-25T10:17:11.454Z,17.98
2022-09-25T10:19:47.569Z,18.18
2022-09-25T10:22:17.344Z,18.30
2022-09-25T10:24:58.555Z,18.35
2022-09-25T10:27:36.827Z,18.46
2022-09-25T10:30:08.910Z,18.41
2022-09-25T10:32:57.248Z,18.38
2022-09-25T10:35:42.017Z,18.49
2022-09-25T10:38:43.951Z,18.68
2022-09-25T10:41:14.688Z,18.79
2022-09-25T10:44:00.006Z,18.75
2022-09-25T10:46:53.111Z,18.78
2022-09-25T10:49:46.292Z,18.87
2022-09-25T10:52:15.507Z,18.96
2022-09-25T10:54:45.543Z,18.99
2022-09-25T10:57:36.471Z,19.25
2022-09-25T11:00:06.035Z,19.17
2022-09-25T11:02:43.048Z,19.39
2022-09-25T11:05:19.880Z,19.53
2022-09-25T11:07:54.937Z,19.79
2022-09-25T11:10:23.782Z,20.01
2022-09-25T11:12:52.018Z,19.97
2022-09-25T11:15:21.506Z,20.08
2022-09-25T11:17:51.460Z,20.16
2022-09-25T11:20:31.969Z,20.03
2022-09-25T11:23:22.171Z,19.78
2022-09-25T11:25:57.724Z,19.86
2022-09-25T11:28:37.191Z,20.02
2022-09-25T11:31:32.867Z,20.18
2022-09-25T11:34:05.102Z,20.47
2022-09-25T11:37:01.090Z,20.36
2022-09-25T11:39:58.128Z,20.34
2022-09-25T11:42:35.503Z,20.41
2022-09-25T11:45:10.630Z,20.63
2022-09-25T11:47:44.201Z,20.94
2022-09-25T11:50:15.860Z,21.08
2022-09-25T11:52:50.796Z,21.21
2022-09-25T11:55:46.618Z,21.01
2022-09-25T11:58:14.474Z,21.15
2022-09-25T12:00:52.634Z,21.03
2022-09-25T12:03:41.025Z,21.12
2022-09-25T12:06:26.879Z,21.30
2022-09-25T12:09:22.741Z,21.46
2022-09-25T12:12:03.277Z,21.73
2022-09-25T12:14:38.494Z,21.71
2022-09-25T12:17:20.029Z,21.55
2022-09-25T12:20:20.321Z,21.64
2022-09-25T12:23:02.876Z,21.44
2022-09-25T12:25:47.948Z,21.40
2022-09-25T12:28:52.554Z,21.53
2022-09-25T12:31:53.504Z,21.53
2022-09-25T12:34:33.044Z,21.60
2022-09-25T12:37:23.113Z,21.74
2022-09-25T12:40:04.023Z,21.62
2022-09-25T12:42:42.053Z,21.67
2022-09-25T12:45:18.446Z,21.78
2022-09-25T12:47:56.056Z,21.68
2022-09-25T12:50:31.195Z,21.27
2022-09-25T12:53:31.684Z,21.39
2022-09-25T12:56:24.217Z,21.44
2022-09-25T12:59:20.068Z,21.41
2022-09-25T13:02:03.817Z,21.46
2022-09-25T13:04:49.248Z,21.45
2022-09-25T13:07:21.321Z,21.53
2022-09-25T13:09:48.986Z,21.40
2022-09-25T13:12:35.383Z,21.49
2022-09-25T13:15:16.026Z,21.03
2022-09-25T13:17:42.641Z,21.11
2022-09-25T13:20:27.096Z,21.18
2022-09-25T13:23:09.786Z,21.13
2022-09-25T13:25:53.588Z,21.00
2022-09-25T13:28:23.420Z,21.01
2022-09-25T13:31:12.907Z,20.93
2022-09-25T13:33:52.648Z,20.79
2022-09-25T13:36:23.531Z,20.91
2022-09-25T13:39:16.087Z,20.76
2022-09-25T13:41:55.344Z,20.60
2022-09-25T13:45:07.475Z,20.51
2022-09-25T13:47:43.730Z,20.36
2022-09-25T13:50:22.468Z,20.44
2022-09-25T13:52:48.792Z,20.43
2022-09-25T13:55:21.266Z,20.49
2022-09-25T13:57:57.294Z,20.43
2022-09-25T14:00:32.824Z,20.21
2022-09-25T14:03:03.067Z,20.42
2022-09-25T14:05:36.153Z,20.32
2022-09-25T14:08:09.145Z,20.15
2022-09-25T14:10:36.015Z,20.08
2022-09-25T14:13:06.902Z,20.20
2022-09-25T14:15:49.492Z,20.31
2022-09-25T14:18:37.536Z,20.42
2022-09-25T14:21:07.635Z,20.33
2022-09-25T14:23:34.060Z,20.33
2022-09-25T14:26:03.053Z,20.25
2022-09-25T14:28:31.673Z,20.31
2022-09-25T14:31:34.730Z,20.17
2022-09-25T14:34:37.635Z,20.33
2022-09-25T14:37:16.112Z,20.38
2022-09-25T14:40:11.565Z,20.40
2022-09-25T14:43:02.891Z,20.31
2022-09-25T14:46:00.274Z,20.22
2022-09-25T14:48:36.748Z,20.19
2022-09-25T14:51:12.162Z,20.20
2022-09-25T14:53:46.462Z,20.10
2022-09-25T14:56:14.685Z,20.29
2022-09-25T14:58:46.235Z,20.23
2022-09-25T15:01:27.759Z,20.10
2022-09-25T15:03:58.669Z,19.80
2022-09-25T15:06:29.231Z,19.67
2022-09-25T15:08:56.367Z,19.55
2022-09-25T15:11:27.134Z,19.66
2022-09-25T15:13:55.032Z,19.51
2022-09-25T15:16:45.592Z,19.30
2022-09-25T15:19:20.558Z,19.42
2022-09-25T15:21:47.541Z,19.36
2022-09-25T15:24:27.759Z,19.64
2022-09-25T15:27:03.803Z,19.50
2022-09-25T15:29:38.112Z,19.40
2022-09-25T15:32:05.772Z,19.45
2022-09-25T15:34:32.858Z,19.38
2022-09-25T15:37:26.241Z,19.28
2022-09-25T15:39:53.374Z,19.19
2022-09-25T15:42:20.291Z,19.29
2022-09-25T15:44:47.831Z,19.10
2022-09-25T15:47:35.744Z,19.09
2022-09-25T15:50:06.115Z,19.00
2022-09-25T15:52:33.970Z,19.00
2022-09-25T15:55:03.201Z,19.03
2022-09-25T15:57:32.161Z,19.04
2022-09-25T16:00:23.090Z,19.06
2022-09-25T16:03:17.413Z,19.05
2022-09-25T16:05:47.371Z,19.01
2022-09-25T16:08:30.894Z,19.02
2022-09-25T16:11:17.221Z,19.05
2022-09-25T16:13:48.449Z,19.00
2022-09-25T16:16:23.409Z,18.92
2022-09-25T16:18:51.174Z,18.83
2022-09-25T16:21:28.828Z,18.83
2022-09-25T16:24:05.769Z,18.80
2022-09-25T16:26:42.804Z,18.75
2022-09-25T16:29:12.215Z,18.72
2022-09-25T16:31:43.915Z,18.55
2022-09-25T16:34:30.731Z,18.27
2022-09-25T16:37:00.727Z,18.37
2022-09-25T16:39:37.867Z,18.30
2022-09-25T16:42:29.449Z,18.29
2022-09-25T16:45:14.716Z,18.24
2022-09-25T16:47:46.827Z,18.05
2022-09-25T16:50:16.181Z,18.07
2022-09-25T16:52:44.019Z,17.94
2022-09-25T16:55:29.318Z,17.92
2022-09-25T16:57:56.929Z,17.80
2022-09-25T17:00:25.789Z,17.83
2022-09-25T17:02:53.976Z,17.84
2022-09-25T17:05:26.498Z,17.79
2022-09-25T17:07:55.968Z,17.79
2022-09-25T17:10:25.736Z,17.77
2022-09-25T17:12:54.250Z,17.73
2022-09-25T17:15:24.124Z,17.65
2022-09-25T17:17:54.642Z,17.68
2022-09-25T17:20:23.380Z,17.57
2022-09-25T17:22:54.183Z,17.55
2022-09-25T17:25:48.433Z,17.50
2022-09-25T17:28:15.553Z,17.42
2022-09-25T17:30:42.764Z,17.37
2022-09-25T17:33:21.382Z,17.39
2022-09-25T17:36:04.856Z,17.31
2022-09-25T17:38:32.534Z,17.26
2022-09-25T17:41:05.442Z,17.21
2022-09-25T17:43:32.786Z,17.15
2022-09-25T17:46:00.987Z,17.10
2022-09-25T17:48:30.654Z,17.09
2022-09-25T17:50:59.895Z,17.01
2022-09-25T17:53:28.898Z,16.83
2022-09-25T17:56:00.016Z,16.68
2022-09-25T17:58:28.772Z,16.70
2022-09-25T18:00:57.669Z,16.62
2022-09-25T18:03:24.092Z,16.55
2022-09-25T18:05:50.513Z,16.50
2022-09-25T18:08:17.913Z,16.58
2022-09-25T18:10:45.048Z,16.36
2022-09-25T18:13:15.660Z,16.45
2022-09-25T18:15:48.290Z,16.56
2022-09-25T18:18:15.271Z,16.54
2022-09-25T18:21:00.163Z,16.35
2022-09-25T18:23:26.818Z,16.24
2022-09-25T18:25:54.709Z,16.21
2022-09-25T18:28:21.210Z,16.23
2022-09-25T18:30:47.654Z,16.15
2022-09-25T18:33:14.075Z,16.17
2022-09-25T18:35:42.736Z,16.22
2022-09-25T18:38:09.160Z,16.20
2022-09-25T18:40:35.603Z,16.17
2022-09-25T18:43:02.064Z,16.12
2022-09-25T18:45:28.440Z,16.07
2022-09-25T18:47:54.814Z,16.11
2022-09-25T18:50:21.280Z,16.01
2022-09-25T18:52:47.849Z,15.96
2022-09-25T18:55:14.240Z,15.90
2022-09-25T18:57:40.953Z,15.92
2022-09-25T19:00:07.876Z,15.93
2022-09-25T19:02:38.787Z,15.88
2022-09-25T19:05:06.602Z,15.89
2022-09-25T19:07:33.086Z,15.91
2022-09-25T19:10:01.746Z,15.77
2022-09-25T19:12:28.173Z,15.77
2022-09-25T19:14:54.548Z,15.80
2022-09-25T19:17:20.991Z,15.86
2022-09-25T19:19:47.372Z,15.78
2022-09-25T19:22:20.184Z,15.76
2022-09-25T19:24:47.975Z,15.79
2022-09-25T19:27:16.143Z,15.76
2022-09-25T19:29:44.782Z,15.66
2022-09-25T19:32:13.356Z,15.70
2022-09-25T19:34:40.308Z,15.64
2022-09-25T19:37:07.344Z,15.54
2022-09-25T19:39:52.650Z,15.46
2022-09-25T19:42:19.280Z,15.41
2022-09-25T19:44:46.926Z,15.39
2022-09-25T19:47:13.380Z,15.35
2022-09-25T19:49:39.803Z,15.34
2022-09-25T19:52:06.249Z,15.33
2022-09-25T19:54:32.776Z,15.27
2022-09-25T19:56:59.534Z,15.28
2022-09-25T19:59:26.119Z,15.28
2022-09-25T20:01:53.540Z,15.35
2022-09-25T20:04:20.239Z,15.30
2022-09-25T20:06:47.282Z,15.19
2022-09-25T20:09:14.569Z,15.19
2022-09-25T20:11:41.069Z,15.24
2022-09-25T20:14:07.786Z,15.27
2022-09-25T20:16:34.448Z,15.26
2022-09-25T20:19:03.493Z,15.28
2022-09-25T20:21:32.816Z,15.30
2022-09-25T20:24:01.447Z,15.30
2022-09-25T20:26:28.896Z,15.20
2022-09-25T20:28:59.995Z,15.26
2022-09-25T20:31:28.616Z,15.22
2022-09-25T20:33:55.622Z,15.16
2022-09-25T20:36:22.677Z,15.06
2022-09-25T20:38:50.759Z,15.05
2022-09-25T20:41:18.284Z,15.03
2022-09-25T20:43:44.956Z,15.07
2022-09-25T20:46:13.547Z,14.96
2022-09-25T20:48:47.514Z,14.89
2022-09-25T20:51:16.290Z,14.65
2022-09-25T20:53:43.271Z,14.71
2022-09-25T20:56:14.800Z,14.79
2022-09-25T20:58:43.145Z,14.81
2022-09-25T21:01:12.647Z,14.62
2022-09-25T21:03:41.518Z,14.58
2022-09-25T21:06:12.390Z,14.49
2022-09-25T21:08:39.032Z,14.61
2022-09-25T21:11:06.192Z,14.65
2022-09-25T21:13:34.217Z,14.66
2022-09-25T21:16:04.426Z,14.57
2022-09-25T21:18:35.036Z,14.53
2022-09-25T21:21:10.811Z,14.48
2022-09-25T21:23:37.464Z,14.39
2022-09-25T21:26:08.975Z,14.55
2022-09-25T21:28:36.302Z,14.41
2022-09-25T21:31:14.901Z,14.38
2022-09-25T21:33:41.805Z,14.46
2022-09-25T21:36:13.251Z,14.38
2022-09-25T21:38:39.815Z,14.30
2022-09-25T21:41:08.672Z,14.42
2022-09-25T21:43:35.899Z,14.34
2022-09-25T21:46:08.592Z,14.34
2022-09-25T21:48:36.484Z,14.26
2022-09-25T21:51:04.890Z,14.33
2022-09-25T21:53:31.718Z,14.25
2022-09-25T21:56:20.923Z,14.22
2022-09-25T21:58:47.331Z,14.23
2022-09-25T22:01:19.427Z,14.27
2022-09-25T22:03:50.465Z,14.17
2022-09-25T22:06:18.340Z,14.21
2022-09-25T22:08:47.219Z,14.16
2022-09-25T22:11:14.118Z,14.21
2022-09-25T22:13:43.252Z,14.24
2022-09-25T22:16:15.560Z,14.19
2022-09-25T22:18:48.014Z,14.22
2022-09-25T22:21:18.181Z,14.05
2022-09-25T22:23:44.971Z,14.16
2022-09-25T22:26:13.313Z,13.98
2022-09-25T22:28:40.182Z,13.93
2022-09-25T22:31:13.917Z,14.00
2022-09-25T22:33:40.357Z,14.05
2022-09-25T22:36:09.162Z,14.04
2022-09-25T22:38:36.208Z,13.81
2022-09-25T22:41:08.435Z,14.00
2022-09-25T22:43:35.397Z,13.93
2022-09-25T22:46:01.908Z,13.96
2022-09-25T22:48:28.368Z,14.03
2022-09-25T22:51:08.632Z,13.91
2022-09-25T22:53:35.710Z,13.91
2022-09-25T22:56:11.093Z,14.04
2022-09-25T22:58:38.071Z,13.90
2022-09-25T23:01:09.232Z,13.94
2022-09-25T23:03:35.745Z,13.84
2022-09-25T23:06:03.175Z,13.88
2022-09-25T23:08:30.272Z,13.83
2022-09-25T23:11:07.166Z,13.83
2022-09-25T23:13:35.220Z,13.81
2022-09-25T23:16:08.114Z,13.95
2022-09-25T23:18:36.415Z,13.92
2022-09-25T23:21:03.967Z,13.88
2022-09-25T23:23:30.807Z,13.86
2022-09-25T23:26:01.963Z,13.89
2022-09-25T23:28:28.360Z,13.78
2022-09-25T23:30:54.831Z,13.77
2022-09-25T23:33:21.290Z,13.83
2022-09-25T23:35:47.708Z,13.69
2022-09-25T23:38:14.111Z,13.70
2022-09-25T23:40:40.597Z,13.80
2022-09-25T23:43:07.053Z,13.77
2022-09-25T23:45:33.564Z,13.78
2022-09-25T23:48:00.062Z,13.62
2022-09-25T23:50:26.451Z,13.66
2022-09-25T23:52:52.831Z,13.66
2022-09-25T23:55:19.233Z,13.59
2022-09-25T23:57:45.632Z,13.46
